Latest Weather Observations for Portland Harbour

IDV60801

Issued at 8:02 pm EST Wednesday 18 May 2022 (issued every 10 minutes, with the page automatically refreshed every 10 minutes)

About weather observations | Map of weather stations | Latest weather observations for VIC | Other Formats
Station Details ID: 090192 Name: PORTLAND NTC AWS Lat: -38.34 Lon: 141.61 Height: 0.0 m
Data from the previous 72 hours. | See also: Recent months for locations in Victoria
Date/Time
EST
Temp
°C
App
Temp
°C
Dew
Point
°C
Rel
Hum
%
Delta-T
°C
Wind Press
QNH
hPa
Press
MSL
hPa
Rain since
9am
mm
Dir  Spd
km/h
Gust
km/h
Spd
kts
Gust
kts
18/08:00pm 13.4 - - - - SW 22 30 12 16 1024.6 1024.6 -
18/07:30pm 13.2 - - - - SW 17 28 9 15 1024.3 1024.3 -
18/07:00pm 13.2 - - - - SW 19 28 10 15 1023.9 1023.9 -
18/06:30pm 12.9 - - - - SW 15 22 8 12 1023.6 1023.6 -
18/06:00pm 12.7 - - - - SW 22 30 12 16 1023.4 1023.4 -
18/05:30pm 13.0 - - - - WSW 17 24 9 13 1023.1 1023.1 -
18/05:00pm 12.9 - - - - WSW 13 22 7 12 1022.9 1022.9 -
18/04:30pm 13.6 - - - - SW 20 30 11 16 1022.6 1022.6 -
18/04:00pm 13.6 - - - - WSW 22 35 12 19 1022.3 1022.3 -
18/03:30pm 13.8 - - - - WSW 24 35 13 19 1021.9 1021.9 -
18/03:00pm 13.3 - - - - SW 20 30 11 16 1021.8 1021.8 -
18/02:48pm 12.6 - - - - SW 30 48 16 26 1021.8 1021.8 -
18/02:30pm 14.1 - - - - SW 30 44 16 24 1021.5 1021.5 -
18/02:00pm 14.4 - - - - SW 30 43 16 23 1021.2 1021.2 -
18/01:30pm 13.9 - - - - SW 32 46 17 25 1021.1 1021.1 -
18/01:00pm 13.9 - - - - WSW 33 44 18 24 1021.2 1021.2 -
18/12:30pm 13.7 - - - - SW 30 41 16 22 1021.4 1021.4 -
18/12:06pm 12.2 - - - - WSW 28 46 15 25 1021.5 1021.5 -
18/12:00pm 12.4 - - - - WSW 32 46 17 25 1021.4 1021.4 -
18/11:30am 13.8 - - - - WSW 26 41 14 22 1021.4 1021.4 -
18/11:06am 13.1 - - - - SW 28 46 15 25 1021.4 1021.4 -
18/11:00am 13.2 - - - - SW 24 37 13 20 1021.3 1021.3 -
18/10:30am 12.7 - - - - WSW 30 44 16 24 1021.0 1021.0 -
18/10:00am 13.7 - - - - WSW 30 43 16 23 1020.7 1020.7 -
18/09:30am 12.8 - - - - WSW 20 32 11 17 1020.5 1020.5 -
18/09:00am 12.9 - - - - WSW 24 37 13 20 1020.2 1020.2 -
18/08:30am 12.0 - - - - WSW 20 32 11 17 1019.8 1019.8 -
18/08:03am 11.6 - - - - WSW 30 67 16 36 1019.6 1019.6 -
18/08:02am 12.0 - - - - WSW 26 57 14 31 1019.6 1019.6 -
18/08:00am 12.0 - - - - WSW 20 32 11 17 1019.3 1019.3 -
18/07:30am 12.2 - - - - WSW 22 32 12 17 1018.9 1018.9 -
18/07:00am 11.6 - - - - WSW 24 37 13 20 1018.6 1018.6 -
18/06:30am 11.8 - - - - WSW 26 39 14 21 1018.3 1018.3 -
18/06:00am 12.4 - - - - WSW 33 52 18 28 1017.9 1017.9 -
18/05:54am 12.4 - - - - WSW 28 52 15 28 1017.9 1017.9 -
18/05:30am 11.8 - - - - WSW 22 30 12 16 1017.6 1017.6 -
18/05:00am 12.4 - - - - WSW 35 61 19 33 1017.5 1017.5 -
18/04:55am 12.8 - - - - WSW 28 50 15 27 1017.4 1017.4 -
18/04:30am 12.4 - - - - WSW 22 35 12 19 1017.1 1017.1 -
18/04:00am 11.8 - - - - W 17 22 9 12 1016.9 1016.9 -
18/03:30am 12.2 - - - - WSW 20 28 11 15 1016.8 1016.8 -
18/03:00am 12.5 - - - - WSW 22 35 12 19 1016.7 1016.7 -
18/02:30am 12.3 - - - - W 20 28 11 15 1016.7 1016.7 -
18/02:00am 12.5 - - - - W 22 35 12 19 1016.8 1016.8 -
18/01:30am 12.7 - - - - WSW 24 39 13 21 1016.6 1016.6 -
18/01:00am 12.6 - - - - WSW 22 33 12 18 1016.5 1016.5 -
18/12:30am 12.2 - - - - W 19 30 10 16 1016.5 1016.5 -
18/12:00am 11.7 - - - - W 20 33 11 18 1016.4 1016.4 -
 
Date/Time
EST
Temp
°C
App
Temp
°C
Dew
Point
°C
Rel
Hum
%
Delta-T
°C
Wind Press
QNH
hPa
Press
MSL
hPa
Rain since
9am
mm
Dir  Spd
km/h
Gust
km/h
Spd
kts
Gust
kts
17/11:30pm 11.3 - - - - WSW 30 43 16 23 1016.7 1016.7 -
17/11:00pm 12.1 - - - - W 19 30 10 16 1016.3 1016.3 -
17/10:30pm 12.5 - - - - WSW 28 52 15 28 1016.4 1016.4 -
17/10:26pm 12.8 - - - - WSW 28 52 15 28 1016.3 1016.3 -
17/10:00pm 12.9 - - - - W 17 30 9 16 1016.1 1016.1 -
17/09:30pm 12.7 - - - - W 20 30 11 16 1016.1 1016.1 -
17/09:00pm 12.1 - - - - WNW 11 17 6 9 1016.1 1016.1 -
17/08:30pm 11.8 - - - - NW 9 15 5 8 1015.9 1015.9 -
17/08:00pm 11.6 - - - - NW 24 37 13 20 1016.0 1016.0 -
17/07:30pm 12.1 - - - - WNW 26 48 14 26 1016.1 1016.1 -
17/07:29pm 12.1 - - - - WNW 24 48 13 26 1016.2 1016.2 -
17/07:28pm 12.1 - - - - NW 24 48 13 26 1016.2 1016.2 -
17/07:00pm 12.6 - - - - NW 17 24 9 13 1015.8 1015.8 -
17/06:30pm 12.8 - - - - NW 22 41 12 22 1015.8 1015.8 -
17/06:00pm 12.4 - - - - WNW 19 30 10 16 1015.7 1015.7 -
17/05:30pm 12.6 - - - - WNW 28 48 15 26 1015.5 1015.5 -
17/05:00pm 13.4 - - - - NW 26 41 14 22 1015.5 1015.5 -
17/04:30pm 13.9 - - - - WNW 32 43 17 23 1015.5 1015.5 -
17/04:16pm 14.2 - - - - WNW 28 46 15 25 1015.5 1015.5 -
17/04:00pm 14.4 - - - - WNW 32 48 17 26 1015.6 1015.6 -
17/03:41pm 14.9 - - - - WNW 28 46 15 25 1015.4 1015.4 -
17/03:30pm 14.8 - - - - WNW 30 46 16 25 1015.5 1015.5 -
17/03:13pm 14.8 - - - - WNW 30 50 16 27 1015.6 1015.6 -
17/03:00pm 15.0 - - - - WNW 32 46 17 25 1015.4 1015.4 -
17/02:33pm 14.5 - - - - WNW 28 46 15 25 1015.4 1015.4 -
17/02:30pm 14.6 - - - - WNW 28 39 15 21 1015.4 1015.4 -
17/02:13pm 14.2 - - - - WNW 30 48 16 26 1015.8 1015.8 -
17/02:00pm 14.3 - - - - WNW 33 52 18 28 1015.7 1015.7 -
17/01:34pm 14.7 - - - - W 28 46 15 25 1015.8 1015.8 -
17/01:30pm 14.4 - - - - WNW 28 46 15 25 1015.9 1015.9 -
17/01:00pm 14.5 - - - - WNW 32 50 17 27 1016.3 1016.3 -
17/12:35pm 14.4 - - - - WNW 30 48 16 26 1016.6 1016.6 -
17/12:30pm 14.4 - - - - WNW 30 46 16 25 1016.7 1016.7 -
17/12:12pm 14.2 - - - - WNW 32 52 17 28 1016.7 1016.7 -
17/12:00pm 13.8 - - - - NW 20 32 11 17 1017.1 1017.1 -
17/11:30am 12.7 - - - - NW 28 46 15 25 1017.6 1017.6 -
17/11:25am 12.4 - - - - NW 28 46 15 25 1017.6 1017.6 -
17/11:00am 12.7 - - - - NW 22 37 12 20 1017.7 1017.7 -
17/10:30am 11.7 - - - - NW 15 24 8 13 1017.7 1017.7 -
17/10:00am 11.3 - - - - NNW 20 26 11 14 1017.8 1017.8 -
17/09:30am 10.5 - - - - NNW 22 37 12 20 1017.9 1017.9 -
17/09:00am 10.0 - - - - NNW 20 28 11 15 1017.8 1017.8 -
17/08:30am 9.5 - - - - NW 17 22 9 12 1017.8 1017.8 -
17/08:00am 9.6 - - - - NNW 17 26 9 14 1017.4 1017.4 -
17/07:30am 9.5 - - - - NNW 15 22 8 12 1017.2 1017.2 -
17/07:00am 9.3 - - - - NNW 17 22 9 12 1016.8 1016.8 -
17/06:30am 10.0 - - - - NNW 17 26 9 14 1016.5 1016.5 -
17/06:00am 9.7 - - - - NNW 20 37 11 20 1016.4 1016.4 -
17/05:30am 11.0 - - - - NNW 15 22 8 12 1016.0 1016.0 -
17/05:00am 10.2 - - - - NNW 11 17 6 9 1015.7 1015.7 -
17/04:30am 11.6 - - - - WSW 11 24 6 13 1015.5 1015.5 -
17/04:00am 11.4 - - - - W 11 17 6 9 1015.4 1015.4 -
17/03:30am 11.2 - - - - WNW 11 20 6 11 1015.4 1015.4 -
17/03:00am 10.5 - - - - W 20 39 11 21 1015.4 1015.4 -
17/02:30am 10.0 - - - - NW 13 20 7 11 1015.3 1015.3 -
17/02:00am 10.4 - - - - NNW 13 19 7 10 1015.3 1015.3 -
17/01:30am 10.1 - - - - NNW 11 17 6 9 1015.3 1015.3 -
17/01:00am 10.7 - - - - NNW 13 19 7 10 1015.4 1015.4 -
17/12:30am 11.3 - - - - NW 11 17 6 9 1015.2 1015.2 -
17/12:00am 11.3 - - - - NW 9 15 5 8 1015.3 1015.3 -
 
Date/Time
EST
Temp
°C
App
Temp
°C
Dew
Point
°C
Rel
Hum
%
Delta-T
°C
Wind Press
QNH
hPa
Press
MSL
hPa
Rain since
9am
mm
Dir  Spd
km/h
Gust
km/h
Spd
kts
Gust
kts
16/11:30pm 11.7 - - - - WNW 13 20 7 11 1015.2 1015.2 -
16/11:00pm 11.8 - - - - W 13 20 7 11 1015.2 1015.2 -
16/10:30pm 12.4 - - - - W 15 28 8 15 1014.9 1014.9 -
16/10:00pm 11.8 - - - - W 9 15 5 8 1014.7 1014.7 -
16/09:30pm 12.1 - - - - WNW 13 20 7 11 1014.6 1014.6 -
16/09:00pm 11.5 - - - - W 13 20 7 11 1014.4 1014.4 -
16/08:30pm 12.0 - - - - WSW 20 35 11 19 1014.3 1014.3 -
16/08:00pm 11.9 - - - - WNW 22 33 12 18 1013.9 1013.9 -
16/07:30pm 11.9 - - - - WNW 19 28 10 15 1013.8 1013.8 -
16/07:00pm 11.9 - - - - WNW 17 26 9 14 1013.5 1013.5 -
16/06:30pm 11.8 - - - - W 17 30 9 16 1013.1 1013.1 -
16/06:00pm 10.8 - - - - W 15 20 8 11 1012.9 1012.9 -
16/05:31pm 10.9 - - - - WSW 28 48 15 26 1012.8 1012.8 -
16/05:30pm 10.9 - - - - WSW 26 48 14 26 1012.8 1012.8 -
16/05:28pm 10.9 - - - - WSW 24 48 13 26 1012.8 1012.8 -
16/05:00pm 10.9 - - - - W 20 35 11 19 1012.3 1012.3 -
16/04:36pm 10.4 - - - - W 35 54 19 29 1012.3 1012.3 -
16/04:30pm 10.8 - - - - W 26 54 14 29 1012.5 1012.5 -
16/04:29pm 11.3 - - - - W 22 54 12 29 1012.5 1012.5 -
16/04:00pm 11.5 - - - - WNW 20 33 11 18 1011.5 1011.5 -
16/03:30pm 11.4 - - - - WSW 28 46 15 25 1011.5 1011.5 -
16/03:20pm 12.4 - - - - W 28 48 15 26 1011.7 1011.7 -
16/03:00pm 13.4 - - - - WNW 28 44 15 24 1010.6 1010.6 -
16/02:30pm 11.3 - - - - WNW 35 57 19 31 1011.1 1011.1 -
16/02:17pm 13.8 - - - - W 32 56 17 30 1010.9 1010.9 -
16/02:00pm 14.0 - - - - WNW 28 41 15 22 1010.4 1010.4 -
16/01:30pm 13.5 - - - - WNW 30 63 16 34 1010.9 1010.9 -
16/01:01pm 13.4 - - - - WNW 28 46 15 25 1011.0 1011.0 -
16/01:00pm 13.4 - - - - WNW 30 46 16 25 1011.0 1011.0 -
16/12:46pm 14.1 - - - - WNW 28 46 15 25 1010.9 1010.9 -
16/12:30pm 13.2 - - - - WNW 24 35 13 19 1011.2 1011.2 -
16/12:02pm 11.9 - - - - WNW 39 61 21 33 1011.8 1011.8 -
16/12:00pm 12.0 - - - - WNW 37 61 20 33 1011.8 1011.8 -
16/11:54am 14.1 - - - - WNW 28 48 15 26 1011.7 1011.7 -
16/11:30am 13.6 - - - - W 24 33 13 18 1011.8 1011.8 -
16/11:00am 14.1 - - - - W 28 39 15 21 1011.9 1011.9 -
16/10:30am 12.7 - - - - W 22 35 12 19 1012.0 1012.0 -
16/10:00am 13.0 - - - - WNW 20 44 11 24 1011.9 1011.9 -
16/09:30am 13.6 - - - - WNW 17 30 9 16 1011.7 1011.7 -
16/09:00am 13.4 - - - - W 19 26 10 14 1011.2 1011.2 -
16/08:30am 13.1 - - - - W 19 35 10 19 1011.0 1011.0 -
16/08:00am 13.0 - - - - W 19 32 10 17 1010.6 1010.6 -
16/07:30am 12.8 - - - - W 19 30 10 16 1010.4 1010.4 -
16/07:00am 12.8 - - - - W 22 33 12 18 1010.3 1010.3 -
16/06:30am 13.0 - - - - W 22 35 12 19 1010.2 1010.2 -
16/06:00am 12.7 - - - - W 17 26 9 14 1009.8 1009.8 -
16/05:30am 12.6 - - - - W 24 37 13 20 1009.7 1009.7 -
16/05:00am 11.8 - - - - WNW 22 35 12 19 1009.2 1009.2 -
16/04:30am 11.4 - - - - NNW 19 26 10 14 1008.8 1008.8 -
16/04:00am 11.1 - - - - NW 13 20 7 11 1008.9 1008.9 -
16/03:30am 11.1 - - - - NNW 24 33 13 18 1008.5 1008.5 -
16/03:00am 11.1 - - - - NNW 24 33 13 18 1008.7 1008.7 -
16/02:30am 11.1 - - - - NW 24 39 13 21 1008.8 1008.8 -
16/02:00am 11.2 - - - - NW 11 19 6 10 1008.8 1008.8 -
16/01:30am 11.7 - - - - NNW 24 32 13 17 1008.7 1008.7 -
16/01:00am 11.6 - - - - NNW 17 24 9 13 1008.7 1008.7 -
16/12:30am 11.8 - - - - NNW 17 24 9 13 1008.9 1008.9 -
16/12:00am 12.0 - - - - NW 17 20 9 11 1009.0 1009.0 -
 
Date/Time
EST
Temp
°C
App
Temp
°C
Dew
Point
°C
Rel
Hum
%
Delta-T
°C
Wind Press
QNH
hPa
Press
MSL
hPa
Rain since
9am
mm
Dir  Spd
km/h
Gust
km/h
Spd
kts
Gust
kts
15/11:30pm 12.0 - - - - WNW 11 22 6 12 1009.1 1009.1 -
15/11:00pm 13.4 - - - - NW 17 24 9 13 1008.5 1008.5 -
15/10:30pm 13.3 - - - - WNW 17 26 9 14 1008.5 1008.5 -
15/10:00pm 13.0 - - - - WNW 26 43 14 23 1008.6 1008.6 -
15/09:49pm 12.9 - - - - WNW 37 57 20 31 1008.5 1008.5 -
15/09:44pm 13.2 - - - - W 28 57 15 31 1008.4 1008.4 -
15/09:30pm 14.5 - - - - W 22 39 12 21 1008.2 1008.2 -
15/09:00pm 14.3 - - - - W 24 39 13 21 1008.2 1008.2 -
15/08:30pm 14.5 - - - - W 33 57 18 31 1007.8 1007.8 -

Other formats

Comma delimited format used in spreadsheet applications
http://www.bom.gov.au/fwo/IDV60801/IDV60801.95826.axf

JavaScript Object Notation format (JSON) in row-major order
http://www.bom.gov.au/fwo/IDV60801/IDV60801.95826.json

Data quality

Most of these data are generated automatically and are frequently updated. Quality checks on data are not normally performed. It is possible for incorrect values to appear. Refer to information at About Latest Weather Observations and please check the disclaimer before using these data.